createdAt,value
2023-02-06T00:04:32.891Z,81.28
2023-02-06T00:09:32.112Z,81.27
2023-02-06T00:14:31.011Z,81.31
2023-02-06T00:19:30.046Z,81.32
2023-02-06T00:24:29.224Z,81.36
2023-02-06T00:29:29.010Z,81.51
2023-02-06T00:34:28.250Z,81.58
2023-02-06T00:39:28.184Z,81.54
2023-02-06T00:44:27.516Z,81.51
2023-02-06T00:49:26.900Z,81.58
2023-02-06T00:54:28.815Z,81.65
2023-02-06T00:59:29.728Z,81.60
2023-02-06T01:04:30.430Z,81.60
2023-02-06T01:09:30.125Z,81.68
2023-02-06T01:14:29.361Z,81.71
2023-02-06T01:19:28.669Z,81.80
2023-02-06T01:24:28.398Z,81.80
2023-02-06T01:29:27.723Z,81.85
2023-02-06T01:34:26.950Z,81.82
2023-02-06T01:39:26.156Z,81.82
2023-02-06T01:44:28.230Z,81.75
2023-02-06T01:49:32.265Z,81.80
2023-02-06T01:54:31.492Z,81.79
2023-02-06T01:59:31.419Z,81.80
2023-02-06T02:04:34.773Z,81.86
2023-02-06T02:09:34.891Z,81.86
2023-02-06T02:14:34.827Z,81.98
2023-02-06T02:20:29.410Z,82.07
2023-02-06T02:26:04.032Z,82.20
2023-02-06T02:31:39.959Z,82.30
2023-02-06T02:36:51.421Z,82.37
2023-02-06T02:42:00.145Z,82.43
2023-02-06T02:47:09.330Z,82.36
2023-02-06T02:52:09.231Z,82.39
2023-02-06T02:57:20.466Z,82.47
2023-02-06T03:02:24.942Z,82.43
2023-02-06T03:07:34.872Z,82.50
2023-02-06T03:12:50.266Z,82.54
2023-02-06T03:18:00.884Z,82.53
2023-02-06T03:23:04.496Z,82.60
2023-02-06T03:28:05.978Z,82.58
2023-02-06T03:33:12.404Z,82.59
2023-02-06T03:38:14.451Z,82.63
2023-02-06T03:43:18.998Z,82.75
2023-02-06T03:48:28.389Z,82.88
2023-02-06T03:53:30.190Z,82.97
2023-02-06T03:58:31.134Z,83.08
2023-02-06T04:03:30.584Z,83.13
2023-02-06T04:08:29.595Z,83.20
2023-02-06T04:13:29.544Z,83.32
2023-02-06T04:18:28.913Z,83.27
2023-02-06T04:23:28.174Z,83.43
2023-02-06T04:28:27.498Z,83.59
2023-02-06T04:33:27.736Z,83.63
2023-02-06T04:38:26.909Z,83.68
2023-02-06T04:43:26.536Z,83.62
2023-02-06T04:48:25.877Z,83.62
2023-02-06T04:53:25.177Z,83.68
2023-02-06T04:58:24.953Z,83.69
2023-02-06T05:03:25.391Z,83.76
2023-02-06T05:08:24.136Z,83.83
2023-02-06T05:13:25.621Z,84.00
2023-02-06T05:18:25.050Z,84.18
2023-02-06T05:23:23.771Z,84.19
2023-02-06T05:28:23.677Z,84.14
2023-02-06T05:33:23.882Z,84.28
2023-02-06T05:38:23.981Z,84.35
2023-02-06T05:43:23.676Z,84.38
2023-02-06T05:48:22.866Z,84.19
2023-02-06T05:53:23.342Z,84.13
2023-02-06T05:58:22.495Z,84.39
2023-02-06T06:03:22.472Z,84.57
2023-02-06T06:08:22.117Z,84.69
2023-02-06T06:13:21.507Z,84.86
2023-02-06T06:18:22.392Z,84.99
2023-02-06T06:23:21.059Z,84.93
2023-02-06T06:28:20.584Z,84.88
2023-02-06T06:33:20.560Z,84.71
2023-02-06T06:38:20.647Z,84.56
2023-02-06T06:43:19.811Z,84.50
2023-02-06T06:48:19.406Z,84.50
2023-02-06T06:53:19.469Z,84.47
2023-02-06T06:58:19.251Z,84.32
2023-02-06T07:03:18.365Z,84.43
2023-02-06T07:08:17.651Z,84.49
2023-02-06T07:13:16.746Z,84.48
2023-02-06T07:18:16.008Z,84.42
2023-02-06T07:23:15.468Z,84.43
2023-02-06T07:28:14.317Z,84.52
2023-02-06T07:33:13.718Z,84.57
2023-02-06T07:38:13.942Z,84.18
2023-02-06T07:43:13.667Z,83.97
2023-02-06T07:48:13.657Z,83.78
2023-02-06T07:53:12.514Z,83.64
2023-02-06T07:58:13.608Z,83.13
2023-02-06T08:03:12.936Z,83.23
2023-02-06T08:08:12.479Z,83.11
2023-02-06T08:13:12.073Z,82.48
2023-02-06T08:18:12.295Z,82.31
2023-02-06T08:23:11.857Z,81.88
2023-02-06T08:28:15.252Z,81.79
2023-02-06T08:33:14.448Z,81.90
2023-02-06T08:38:13.349Z,82.03
2023-02-06T08:43:12.153Z,82.24
2023-02-06T08:48:11.436Z,82.14
2023-02-06T08:53:12.962Z,82.06
2023-02-06T08:58:12.190Z,81.74
2023-02-06T09:03:11.409Z,81.81
2023-02-06T09:08:10.922Z,81.35
2023-02-06T09:13:10.010Z,80.99
2023-02-06T09:18:09.476Z,80.82
2023-02-06T09:23:08.336Z,80.71
2023-02-06T09:28:07.627Z,80.30
2023-02-06T09:33:07.168Z,79.50
2023-02-06T09:38:06.394Z,79.23
2023-02-06T09:43:06.849Z,78.97
2023-02-06T09:48:25.372Z,78.36
2023-02-06T09:53:39.315Z,77.88
2023-02-06T09:58:47.389Z,77.36
2023-02-06T10:04:25.364Z,76.69
2023-02-06T10:09:38.336Z,76.18
2023-02-06T10:14:45.690Z,75.26
2023-02-06T10:19:52.189Z,75.54
2023-02-06T10:25:01.700Z,75.17
2023-02-06T10:30:01.726Z,74.48
2023-02-06T10:35:22.063Z,74.36
2023-02-06T10:40:40.410Z,74.13
2023-02-06T10:45:52.110Z,73.88
2023-02-06T10:50:58.056Z,74.04
2023-02-06T10:56:00.978Z,73.45
2023-02-06T11:01:01.426Z,73.35
2023-02-06T11:06:03.231Z,73.29
2023-02-06T11:11:19.112Z,73.31
2023-02-06T11:16:26.981Z,73.18
2023-02-06T11:21:58.117Z,73.36
2023-02-06T11:27:01.113Z,73.05
2023-02-06T11:32:07.209Z,73.21
2023-02-06T11:37:29.447Z,73.10
2023-02-06T11:42:31.498Z,72.86
2023-02-06T11:47:38.565Z,72.86
2023-02-06T11:52:38.344Z,73.11
2023-02-06T11:57:38.448Z,73.11
2023-02-06T12:02:40.793Z,72.56
2023-02-06T12:07:47.622Z,72.16
2023-02-06T12:12:51.806Z,71.93
2023-02-06T12:17:59.853Z,72.01
2023-02-06T12:23:07.404Z,72.06
2023-02-06T12:28:17.004Z,72.31
2023-02-06T12:33:25.706Z,72.25
2023-02-06T12:38:33.612Z,72.18
2023-02-06T12:43:37.425Z,72.44
2023-02-06T12:48:47.347Z,72.25
2023-02-06T12:53:55.809Z,72.26
2023-02-06T12:59:05.440Z,72.34
2023-02-06T13:04:08.571Z,71.93
2023-02-06T13:09:17.795Z,72.09
2023-02-06T13:14:25.412Z,72.17
2023-02-06T13:19:33.175Z,72.08
2023-02-06T13:24:32.367Z,71.93
2023-02-06T13:29:34.359Z,72.19
2023-02-06T13:34:33.499Z,72.03
2023-02-06T13:39:41.816Z,71.87
2023-02-06T13:44:41.997Z,71.53
2023-02-06T13:50:23.066Z,71.35
2023-02-06T13:55:44.570Z,70.93
2023-02-06T14:00:51.123Z,70.51
2023-02-06T14:06:00.447Z,70.36
2023-02-06T14:11:38.850Z,70.47
2023-02-06T14:16:52.793Z,70.55
2023-02-06T14:22:05.168Z,70.64
2023-02-06T14:27:24.347Z,70.67
2023-02-06T14:32:48.773Z,70.89
2023-02-06T14:38:22.882Z,70.92
2023-02-06T14:43:28.935Z,71.07
2023-02-06T14:48:41.498Z,71.25
2023-02-06T14:53:52.823Z,71.49
2023-02-06T14:58:52.309Z,71.78
2023-02-06T15:04:09.103Z,72.22
2023-02-06T15:09:10.341Z,72.59
2023-02-06T15:14:27.458Z,72.96
2023-02-06T15:19:30.719Z,73.39
2023-02-06T15:25:03.183Z,73.86
2023-02-06T15:30:04.873Z,74.39
2023-02-06T15:35:06.196Z,74.82
2023-02-06T15:40:18.989Z,75.27
2023-02-06T15:45:26.492Z,75.69
2023-02-06T15:50:30.057Z,76.07
2023-02-06T15:55:38.812Z,76.39
2023-02-06T16:00:40.771Z,76.69
2023-02-06T16:05:43.778Z,76.96
2023-02-06T16:10:46.344Z,77.21
2023-02-06T16:16:06.546Z,77.57
2023-02-06T16:21:34.688Z,77.88
2023-02-06T16:26:41.375Z,78.17
2023-02-06T16:31:45.649Z,78.32
2023-02-06T16:36:45.419Z,78.52
2023-02-06T16:41:51.128Z,78.74
2023-02-06T16:46:56.435Z,78.99
2023-02-06T16:51:57.774Z,79.26
2023-02-06T16:57:11.360Z,79.54
2023-02-06T17:02:17.222Z,79.74
2023-02-06T17:07:22.859Z,79.94
2023-02-06T17:12:24.417Z,80.13
2023-02-06T17:17:26.686Z,80.31
2023-02-06T17:22:26.088Z,80.47
2023-02-06T17:27:26.459Z,80.71
2023-02-06T17:32:25.688Z,80.92
2023-02-06T17:37:25.075Z,81.14
2023-02-06T17:42:26.565Z,81.31
2023-02-06T17:47:25.976Z,81.46
2023-02-06T17:52:25.886Z,81.68
2023-02-06T17:57:31.096Z,81.89
2023-02-06T18:02:30.146Z,82.06
2023-02-06T18:07:29.610Z,82.20
2023-02-06T18:12:29.366Z,82.26
2023-02-06T18:17:29.312Z,82.49
2023-02-06T18:22:28.578Z,82.62
2023-02-06T18:27:28.218Z,82.68
2023-02-06T18:32:27.812Z,82.64
2023-02-06T18:37:27.569Z,82.57
2023-02-06T18:42:44.647Z,82.56
2023-02-06T18:47:49.222Z,82.60
2023-02-06T18:52:48.396Z,82.64
2023-02-06T18:57:48.442Z,82.62
2023-02-06T19:02:47.621Z,82.64
2023-02-06T19:07:52.675Z,82.61
2023-02-06T19:12:52.603Z,82.51
2023-02-06T19:17:51.373Z,82.44
2023-02-06T19:22:52.808Z,82.40
2023-02-06T19:27:52.322Z,82.40
2023-02-06T19:32:52.740Z,82.39
2023-02-06T19:37:52.781Z,82.41
2023-02-06T19:42:52.174Z,82.42
2023-02-06T19:47:52.785Z,82.38
2023-02-06T19:52:52.566Z,82.32
2023-02-06T19:57:52.796Z,82.30
2023-02-06T20:02:52.486Z,82.21
2023-02-06T20:07:52.039Z,82.19
2023-02-06T20:12:51.066Z,82.11
2023-02-06T20:17:53.471Z,82.10
2023-02-06T20:22:53.189Z,82.03
2023-02-06T20:27:52.801Z,82.00
2023-02-06T20:32:52.012Z,82.00
2023-02-06T20:37:51.245Z,81.94
2023-02-06T20:42:50.720Z,81.90
2023-02-06T20:47:50.764Z,81.90
2023-02-06T20:52:50.750Z,81.93
2023-02-06T20:57:49.751Z,82.00
2023-02-06T21:02:49.254Z,82.00
2023-02-06T21:07:49.693Z,82.00
2023-02-06T21:12:49.142Z,82.01
2023-02-06T21:17:49.613Z,81.99
2023-02-06T21:22:52.867Z,81.91
2023-02-06T21:27:51.939Z,81.89
2023-02-06T21:32:51.043Z,81.92
2023-02-06T21:37:50.815Z,82.00
2023-02-06T21:42:50.222Z,82.08
2023-02-06T21:47:51.096Z,82.20
2023-02-06T21:52:51.207Z,82.22
2023-02-06T21:57:50.585Z,82.22
2023-02-06T22:02:49.805Z,82.30
2023-02-06T22:07:49.749Z,82.32
2023-02-06T22:12:53.017Z,82.32
2023-02-06T22:17:52.813Z,82.37
2023-02-06T22:22:51.542Z,82.40
2023-02-06T22:27:51.077Z,82.45
2023-02-06T22:32:50.689Z,82.55
2023-02-06T22:37:50.099Z,82.60
2023-02-06T22:42:49.450Z,82.63
2023-02-06T22:47:48.385Z,82.67
2023-02-06T22:53:05.601Z,82.68
2023-02-06T22:58:04.779Z,82.67
2023-02-06T23:03:04.233Z,82.66
2023-02-06T23:08:03.222Z,82.60
2023-02-06T23:13:02.218Z,82.43
2023-02-06T23:18:01.597Z,82.26
2023-02-06T23:23:01.945Z,82.17
2023-02-06T23:28:01.251Z,82.08
2023-02-06T23:33:00.628Z,82.08
2023-02-06T23:37:59.982Z,82.09
2023-02-06T23:42:59.191Z,82.06
2023-02-06T23:47:58.697Z,82.03
2023-02-06T23:52:58.061Z,82.07
2023-02-06T23:57:57.953Z,82.03
